West Saint Paul, Minnesota
Current Conditions -  °F | °C
As of 12:53 PM on Thursday 27 Nov 2014 (Local Time) from KSTP Reporting Station
Clear Clear  
Wind Chill:   Ceiling: Unl
Heat Index:   Visibility: 10mi
Dew Point: -3°   Wind: 0mph
Humidity: 61%   Direction: NA
Pressure: 30.49"   Gusts: NA
Location:  44.8976°N, 93.103°W
Report Text: KSTP 271853Z 00000KT 10SM CLR M13/M19 A3049 RMK AO2 SLP341 T11331194
Loading
Personal Weather Stations






























Interactive Weather Map New forecast layout! Learn more

10-Day Weather Forecast

Advertisements
Track Severe Weather on mobile